createdAt,value
2019-05-26T00:01:33.614Z,30.20
2019-05-26T00:04:00.433Z,30.20
2019-05-26T00:06:27.166Z,30.30
2019-05-26T00:08:54.524Z,30.20
2019-05-26T00:11:21.305Z,30.20
2019-05-26T00:13:48.094Z,30.30
2019-05-26T00:16:14.951Z,30.30
2019-05-26T00:18:41.682Z,30.30
2019-05-26T00:21:08.427Z,30.30
2019-05-26T00:23:35.280Z,30.40
2019-05-26T00:26:02.002Z,30.40
2019-05-26T00:28:28.729Z,30.40
2019-05-26T00:30:55.999Z,30.40
2019-05-26T00:33:22.720Z,30.50
2019-05-26T00:35:49.461Z,30.40
2019-05-26T00:38:16.198Z,30.40
2019-05-26T00:40:42.903Z,30.40
2019-05-26T00:43:09.681Z,30.50
2019-05-26T00:45:36.533Z,30.50
2019-05-26T00:48:03.372Z,30.50
2019-05-26T00:50:30.213Z,30.50
2019-05-26T00:52:57.127Z,30.60
2019-05-26T00:55:23.897Z,30.60
2019-05-26T00:57:50.742Z,30.60
2019-05-26T01:00:18.289Z,30.70
2019-05-26T01:02:45.029Z,30.70
2019-05-26T01:05:11.765Z,30.70
2019-05-26T01:07:38.622Z,30.70
2019-05-26T01:10:05.357Z,30.60
2019-05-26T01:12:32.199Z,30.70
2019-05-26T01:14:59.452Z,30.70
2019-05-26T01:17:26.182Z,30.70
2019-05-26T01:19:52.928Z,30.70
2019-05-26T01:22:19.758Z,30.60
2019-05-26T01:24:46.510Z,30.70
2019-05-26T01:27:13.350Z,30.60
2019-05-26T01:29:40.192Z,30.50
2019-05-26T01:32:07.057Z,30.60
2019-05-26T01:34:33.772Z,30.70
2019-05-26T01:37:00.615Z,30.70
2019-05-26T01:39:27.357Z,30.70
2019-05-26T01:41:54.091Z,30.70
2019-05-26T01:44:20.943Z,30.80
2019-05-26T01:46:47.783Z,30.80
2019-05-26T01:49:14.618Z,30.80
2019-05-26T01:51:41.449Z,30.80
2019-05-26T01:54:08.310Z,30.80
2019-05-26T01:56:35.036Z,30.90
2019-05-26T01:59:01.888Z,30.80
2019-05-26T02:01:28.628Z,30.90
2019-05-26T02:03:55.469Z,30.90
2019-05-26T02:06:22.309Z,30.90
2019-05-26T02:08:49.002Z,30.90
2019-05-26T02:11:15.789Z,30.90
2019-05-26T02:13:42.626Z,30.90
2019-05-26T02:16:09.366Z,30.90
2019-05-26T02:18:36.222Z,30.90
2019-05-26T02:21:03.039Z,30.90
2019-05-26T02:23:29.894Z,30.90
2019-05-26T02:25:56.586Z,30.90
2019-05-26T02:28:23.463Z,30.80
2019-05-26T02:30:50.203Z,30.80
2019-05-26T02:33:16.903Z,30.90
2019-05-26T02:35:43.798Z,30.90
2019-05-26T02:38:10.522Z,30.90
2019-05-26T02:40:37.301Z,30.90
2019-05-26T02:43:04.408Z,31.00
2019-05-26T02:45:31.165Z,30.90
2019-05-26T02:47:57.937Z,30.90
2019-05-26T02:50:24.837Z,30.90
2019-05-26T02:52:51.581Z,30.90
2019-05-26T02:55:18.432Z,30.90
2019-05-26T02:57:45.257Z,30.90
2019-05-26T03:00:12.015Z,31.00
2019-05-26T03:02:38.735Z,30.90
2019-05-26T03:05:05.575Z,30.90
2019-05-26T03:07:32.334Z,30.90
2019-05-26T03:09:59.165Z,31.00
2019-05-26T03:12:26.015Z,31.00
2019-05-26T03:14:52.854Z,31.00
2019-05-26T03:17:19.577Z,31.00
2019-05-26T03:19:46.705Z,31.00
2019-05-26T03:22:13.477Z,30.90
2019-05-26T03:24:40.204Z,31.00
2019-05-26T03:27:07.049Z,30.80
2019-05-26T03:29:33.786Z,30.80
2019-05-26T03:32:00.529Z,30.70
2019-05-26T03:34:27.309Z,30.70
2019-05-26T03:36:54.134Z,30.60
2019-05-26T03:39:39.604Z,30.60
2019-05-26T03:41:49.287Z,30.60
2019-05-26T03:44:16.075Z,30.70
2019-05-26T03:46:42.772Z,30.70
2019-05-26T03:49:09.585Z,30.80
2019-05-26T03:51:36.287Z,30.80
2019-05-26T03:54:03.024Z,30.90
2019-05-26T03:56:29.868Z,30.90
2019-05-26T03:58:56.608Z,31.00
2019-05-26T04:01:23.349Z,31.10
2019-05-26T04:03:50.203Z,31.20
2019-05-26T04:06:16.936Z,31.20
2019-05-26T04:08:43.672Z,31.20
2019-05-26T04:11:10.518Z,31.20
2019-05-26T04:13:37.252Z,31.30
2019-05-26T04:16:04.086Z,31.30
2019-05-26T04:18:31.249Z,31.30
2019-05-26T04:20:57.977Z,31.40
2019-05-26T04:23:24.715Z,31.40
2019-05-26T04:25:52.078Z,31.50
2019-05-26T04:28:18.818Z,31.50
2019-05-26T04:30:45.545Z,31.60
2019-05-26T04:33:12.402Z,31.60
2019-05-26T04:35:39.133Z,31.70
2019-05-26T04:38:05.867Z,31.70
2019-05-26T04:40:32.910Z,31.70
2019-05-26T04:42:59.653Z,31.70
2019-05-26T04:45:26.404Z,31.70
2019-05-26T04:47:53.359Z,31.70
2019-05-26T04:50:20.077Z,31.70
2019-05-26T04:53:04.470Z,31.80
2019-05-26T04:55:15.292Z,31.90
2019-05-26T04:57:42.031Z,31.90
2019-05-26T05:00:08.875Z,32.00
2019-05-26T05:02:35.681Z,32.20
2019-05-26T05:05:02.464Z,32.20
2019-05-26T05:07:29.318Z,32.20
2019-05-26T05:09:56.146Z,32.40
2019-05-26T05:12:22.989Z,32.40
2019-05-26T05:14:49.830Z,32.40
2019-05-26T05:17:16.671Z,32.50
2019-05-26T05:19:43.371Z,32.60
2019-05-26T05:22:10.143Z,32.60
2019-05-26T05:24:36.984Z,32.70
2019-05-26T05:27:03.755Z,32.80
2019-05-26T05:29:30.680Z,32.70
2019-05-26T05:31:57.512Z,32.70
2019-05-26T05:34:24.251Z,32.70
2019-05-26T05:36:50.986Z,32.60
2019-05-26T05:39:17.841Z,32.40
2019-05-26T05:41:44.678Z,32.40
2019-05-26T05:44:11.409Z,32.20
2019-05-26T05:46:38.204Z,32.30
2019-05-26T05:49:04.992Z,32.40
2019-05-26T05:51:31.741Z,32.50
2019-05-26T05:53:58.582Z,32.60
2019-05-26T05:56:25.308Z,32.60
2019-05-26T05:58:52.059Z,32.50
2019-05-26T06:01:18.904Z,32.20
2019-05-26T06:03:45.644Z,32.20
2019-05-26T06:06:12.373Z,32.30
2019-05-26T06:08:39.212Z,32.40
2019-05-26T06:11:15.950Z,32.60
2019-05-26T06:13:34.443Z,32.90
2019-05-26T06:16:01.287Z,33.20
2019-05-26T06:18:28.016Z,33.40
2019-05-26T06:20:54.753Z,33.70
2019-05-26T06:23:21.601Z,34.00
2019-05-26T06:25:48.330Z,34.20
2019-05-26T06:28:15.071Z,34.50
2019-05-26T06:30:42.319Z,34.80
2019-05-26T06:33:09.070Z,35.00
2019-05-26T06:35:35.801Z,35.20
2019-05-26T06:38:02.652Z,35.50
2019-05-26T06:40:29.495Z,35.90
2019-05-26T06:42:56.196Z,36.10
2019-05-26T06:45:23.079Z,36.40
2019-05-26T06:47:49.804Z,36.70
2019-05-26T06:50:16.543Z,36.90
2019-05-26T06:52:43.400Z,37.20
2019-05-26T06:55:10.235Z,37.30
2019-05-26T06:57:36.984Z,37.50
2019-05-26T07:00:03.824Z,37.60
2019-05-26T07:02:30.664Z,38.10
2019-05-26T07:04:57.388Z,38.20
2019-05-26T07:07:24.240Z,38.40
2019-05-26T07:09:51.084Z,38.50
2019-05-26T07:12:17.800Z,38.80
2019-05-26T07:14:44.668Z,38.50
2019-05-26T07:17:11.414Z,38.80
2019-05-26T07:19:38.133Z,39.20
2019-05-26T07:22:05.323Z,39.50
2019-05-26T07:24:32.241Z,39.80
2019-05-26T07:26:59.103Z,39.70
2019-05-26T07:29:26.426Z,39.70
2019-05-26T07:31:53.890Z,39.30
2019-05-26T07:34:20.768Z,39.50
2019-05-26T07:36:47.979Z,39.90
2019-05-26T07:39:14.847Z,40.30
2019-05-26T07:41:41.662Z,40.50
2019-05-26T07:44:08.535Z,40.90
2019-05-26T07:46:35.333Z,41.30
2019-05-26T07:49:02.073Z,41.40
2019-05-26T07:51:28.863Z,41.70
2019-05-26T07:53:56.321Z,42.10
2019-05-26T07:56:23.111Z,42.30
2019-05-26T07:58:49.964Z,42.70
2019-05-26T08:01:16.695Z,42.70
2019-05-26T08:03:43.543Z,43.00
2019-05-26T08:06:10.381Z,43.20
2019-05-26T08:08:37.117Z,43.40
2019-05-26T08:11:03.857Z,43.20
2019-05-26T08:13:31.106Z,43.40
2019-05-26T08:15:57.859Z,43.60
2019-05-26T08:18:24.726Z,44.00
2019-05-26T08:20:51.751Z,44.40
2019-05-26T08:23:18.590Z,44.30
2019-05-26T08:25:45.433Z,44.30
2019-05-26T08:28:12.268Z,44.50
2019-05-26T08:30:39.108Z,44.70
2019-05-26T08:33:05.952Z,44.70
2019-05-26T08:35:32.781Z,44.80
2019-05-26T08:37:59.489Z,44.80
2019-05-26T08:40:26.270Z,44.50
2019-05-26T08:42:53.102Z,44.30
2019-05-26T08:45:21.718Z,44.10
2019-05-26T08:47:48.220Z,43.80
2019-05-26T08:50:15.292Z,43.50
2019-05-26T08:52:42.111Z,43.20
2019-05-26T08:55:08.960Z,43.30
2019-05-26T08:57:35.741Z,43.50
2019-05-26T09:00:02.531Z,43.90
2019-05-26T09:02:29.279Z,44.20
2019-05-26T09:04:56.122Z,43.90
2019-05-26T09:07:22.962Z,43.90
2019-05-26T09:09:49.796Z,43.70
2019-05-26T09:12:16.641Z,43.90
2019-05-26T09:14:43.386Z,43.90
2019-05-26T09:17:10.228Z,44.40
2019-05-26T09:19:37.071Z,44.70
2019-05-26T09:22:03.796Z,44.90
2019-05-26T09:24:30.547Z,45.30
2019-05-26T09:26:57.399Z,45.80
2019-05-26T09:29:24.131Z,45.60
2019-05-26T09:31:50.857Z,46.10
2019-05-26T09:34:17.747Z,46.20
2019-05-26T09:36:44.649Z,46.30
2019-05-26T09:39:11.381Z,46.60
2019-05-26T09:41:38.238Z,46.90
2019-05-26T09:44:05.076Z,46.70
2019-05-26T09:46:31.803Z,46.40
2019-05-26T09:49:00.924Z,46.50
2019-05-26T09:51:27.138Z,46.70
2019-05-26T09:54:01.625Z,47.10
2019-05-26T09:56:22.360Z,47.20
2019-05-26T09:58:49.086Z,47.60
2019-05-26T10:01:15.822Z,47.60
2019-05-26T10:03:42.687Z,47.60
2019-05-26T10:06:09.521Z,47.30
2019-05-26T10:08:36.274Z,47.10
2019-05-26T10:11:03.109Z,47.10
2019-05-26T10:13:31.957Z,47.00
2019-05-26T10:15:58.435Z,47.00
2019-05-26T10:18:25.265Z,46.80
2019-05-26T10:20:52.323Z,47.00
2019-05-26T10:23:19.638Z,47.10
2019-05-26T10:25:46.448Z,47.40
2019-05-26T10:28:13.247Z,47.10
2019-05-26T10:30:40.086Z,46.70
2019-05-26T10:33:06.929Z,47.00
2019-05-26T10:35:33.758Z,47.20
2019-05-26T10:38:00.507Z,47.50
2019-05-26T10:40:27.343Z,47.60
2019-05-26T10:42:54.073Z,47.20
2019-05-26T10:45:20.828Z,47.40
2019-05-26T10:47:47.817Z,47.60
2019-05-26T10:50:14.606Z,47.80
2019-05-26T10:52:41.617Z,47.80
2019-05-26T10:55:08.826Z,47.90
2019-05-26T10:57:35.855Z,47.90
2019-05-26T11:00:02.552Z,48.00
2019-05-26T11:02:29.421Z,48.40
2019-05-26T11:04:56.274Z,48.60
2019-05-26T11:07:23.119Z,48.50
2019-05-26T11:09:49.949Z,48.40
2019-05-26T11:12:16.686Z,48.70
2019-05-26T11:14:43.425Z,48.90
2019-05-26T11:17:10.812Z,49.10
2019-05-26T11:19:37.634Z,49.40
2019-05-26T11:22:04.480Z,49.70
2019-05-26T11:24:31.339Z,49.70
2019-05-26T11:27:08.387Z,49.50
2019-05-26T11:29:26.639Z,49.20
2019-05-26T11:31:53.495Z,48.90
2019-05-26T11:34:20.385Z,48.70
2019-05-26T11:36:47.162Z,48.60
2019-05-26T11:39:14.010Z,48.60
2019-05-26T11:41:40.937Z,48.60
2019-05-26T11:44:17.384Z,48.70
2019-05-26T11:46:36.262Z,48.90
2019-05-26T11:49:02.999Z,49.00
2019-05-26T11:51:29.737Z,48.80
2019-05-26T11:53:56.580Z,48.90
2019-05-26T11:56:23.319Z,48.70
2019-05-26T11:58:50.068Z,48.70
2019-05-26T12:01:16.904Z,48.50
2019-05-26T12:03:43.645Z,48.70
2019-05-26T12:06:10.393Z,49.00
2019-05-26T12:08:37.218Z,49.10
2019-05-26T12:11:03.964Z,49.30
2019-05-26T12:13:30.810Z,49.20
2019-05-26T12:15:57.640Z,49.00
2019-05-26T12:18:24.397Z,48.70
2019-05-26T12:20:51.119Z,48.90
2019-05-26T12:23:17.973Z,49.10
2019-05-26T12:25:44.708Z,49.30
2019-05-26T12:28:11.556Z,49.50
2019-05-26T12:30:38.394Z,49.90
2019-05-26T12:33:05.238Z,50.00
2019-05-26T12:35:31.964Z,50.00
2019-05-26T12:37:58.839Z,49.50
2019-05-26T12:40:25.551Z,49.50
2019-05-26T12:42:52.296Z,49.60
2019-05-26T12:45:19.139Z,49.70
2019-05-26T12:47:45.986Z,49.90
2019-05-26T12:50:12.818Z,50.00
2019-05-26T12:52:39.601Z,50.10
2019-05-26T12:55:08.949Z,50.10
2019-05-26T12:57:34.767Z,50.10
2019-05-26T13:00:01.665Z,50.20
2019-05-26T13:02:28.670Z,50.30
2019-05-26T13:04:55.397Z,50.10
2019-05-26T13:07:22.243Z,50.10
2019-05-26T13:09:49.101Z,50.30
2019-05-26T13:12:15.852Z,50.40
2019-05-26T13:14:43.391Z,50.00
2019-05-26T13:17:10.114Z,50.20
2019-05-26T13:19:36.867Z,50.10
2019-05-26T13:22:03.621Z,50.10
2019-05-26T13:24:30.342Z,50.00
2019-05-26T13:26:57.073Z,49.70
2019-05-26T13:29:25.851Z,49.30
2019-05-26T13:31:52.404Z,49.10
2019-05-26T13:34:19.135Z,49.10
2019-05-26T13:36:45.986Z,49.10
2019-05-26T13:39:12.725Z,49.30
2019-05-26T13:41:39.453Z,49.10
2019-05-26T13:44:06.298Z,47.90
2019-05-26T13:46:33.149Z,47.20
2019-05-26T13:48:59.991Z,47.10
2019-05-26T13:51:27.108Z,46.70
2019-05-26T13:53:53.879Z,46.70
2019-05-26T13:56:20.628Z,46.70
2019-05-26T13:58:47.407Z,46.80
2019-05-26T14:01:14.200Z,46.80
2019-05-26T14:03:41.041Z,46.70
2019-05-26T14:06:07.890Z,46.50
2019-05-26T14:08:34.925Z,46.00
2019-05-26T14:11:02.087Z,46.00
2019-05-26T14:13:28.978Z,45.80
2019-05-26T14:15:56.056Z,45.70
2019-05-26T14:18:23.324Z,45.70
2019-05-26T14:20:50.148Z,45.70
2019-05-26T14:23:17.004Z,45.80
2019-05-26T14:25:43.734Z,45.70
2019-05-26T14:28:10.618Z,45.60
2019-05-26T14:30:37.726Z,45.20
2019-05-26T14:33:04.579Z,44.60
2019-05-26T14:35:31.637Z,44.30
2019-05-26T14:37:58.463Z,44.00
2019-05-26T14:40:25.301Z,44.00
2019-05-26T14:42:52.196Z,43.90
2019-05-26T14:45:18.988Z,43.20
2019-05-26T14:47:45.827Z,43.40
2019-05-26T14:50:12.675Z,43.50
2019-05-26T14:52:39.363Z,43.60
2019-05-26T14:55:06.159Z,43.50
2019-05-26T14:57:32.991Z,43.20
2019-05-26T14:59:59.777Z,43.20
2019-05-26T15:02:26.873Z,43.00
2019-05-26T15:04:53.706Z,42.70
2019-05-26T15:07:20.560Z,42.70
2019-05-26T15:09:47.299Z,42.60
2019-05-26T15:12:14.347Z,42.40
2019-05-26T15:14:41.075Z,42.20
2019-05-26T15:17:07.829Z,41.80
2019-05-26T15:19:34.730Z,41.50
2019-05-26T15:22:01.612Z,41.30
2019-05-26T15:24:28.351Z,40.60
2019-05-26T15:26:55.180Z,40.40
2019-05-26T15:29:21.948Z,40.40
2019-05-26T15:31:48.661Z,40.60
2019-05-26T15:34:15.498Z,40.60
2019-05-26T15:36:42.144Z,40.60
2019-05-26T15:39:08.888Z,40.50
2019-05-26T15:41:35.720Z,40.50
2019-05-26T15:44:02.433Z,40.30
2019-05-26T15:46:29.163Z,40.30
2019-05-26T15:48:56.041Z,40.00
2019-05-26T15:51:22.782Z,39.70
2019-05-26T15:53:49.526Z,39.80
2019-05-26T15:56:16.370Z,39.50
2019-05-26T15:58:43.404Z,39.40
2019-05-26T16:01:10.153Z,38.90
2019-05-26T16:03:37.001Z,38.70
2019-05-26T16:06:03.857Z,38.30
2019-05-26T16:08:31.481Z,38.20
2019-05-26T16:10:58.332Z,38.10
2019-05-26T16:13:25.090Z,38.00
2019-05-26T16:15:51.809Z,38.30
2019-05-26T16:18:18.714Z,38.20
2019-05-26T16:20:45.624Z,38.30
2019-05-26T16:23:12.437Z,38.40
2019-05-26T16:25:39.290Z,38.50
2019-05-26T16:28:06.027Z,38.50
2019-05-26T16:30:32.770Z,38.60
2019-05-26T16:33:00.287Z,38.50
2019-05-26T16:35:27.069Z,38.10
2019-05-26T16:37:53.794Z,37.80
2019-05-26T16:40:20.648Z,37.90
2019-05-26T16:42:47.373Z,37.80
2019-05-26T16:45:14.134Z,37.90
2019-05-26T16:47:41.132Z,37.80
2019-05-26T16:50:07.810Z,37.90
2019-05-26T16:52:34.647Z,38.00
2019-05-26T16:55:01.891Z,38.00
2019-05-26T16:57:28.628Z,38.00
2019-05-26T16:59:55.481Z,38.00
2019-05-26T17:02:22.316Z,37.90
2019-05-26T17:04:49.167Z,37.90
2019-05-26T17:07:16.006Z,37.80
2019-05-26T17:09:42.853Z,37.80
2019-05-26T17:12:09.576Z,37.80
2019-05-26T17:14:36.341Z,37.70
2019-05-26T17:17:14.246Z,37.70
2019-05-26T17:19:31.536Z,37.80
2019-05-26T17:21:58.275Z,37.80
2019-05-26T17:24:25.531Z,37.90
2019-05-26T17:26:52.400Z,37.80
2019-05-26T17:29:19.117Z,37.80
2019-05-26T17:31:45.860Z,37.70
2019-05-26T17:34:12.600Z,37.70
2019-05-26T17:36:39.766Z,37.70
2019-05-26T17:39:07.798Z,37.70
2019-05-26T17:41:35.059Z,37.60
2019-05-26T17:44:01.794Z,37.60
2019-05-26T17:46:29.055Z,37.60
2019-05-26T17:48:55.910Z,37.40
2019-05-26T17:51:22.732Z,37.50
2019-05-26T17:53:49.782Z,37.40
2019-05-26T17:56:16.515Z,37.40
2019-05-26T17:58:43.570Z,37.30
2019-05-26T18:01:10.557Z,37.30
2019-05-26T18:03:37.241Z,37.10
2019-05-26T18:06:04.159Z,37.20
2019-05-26T18:08:31.419Z,37.10
2019-05-26T18:10:58.213Z,37.10
2019-05-26T18:13:25.239Z,37.10
2019-05-26T18:15:52.140Z,37.10
2019-05-26T18:18:18.907Z,37.00
2019-05-26T18:20:46.235Z,36.90
2019-05-26T18:23:13.014Z,36.90
2019-05-26T18:25:39.787Z,36.90
2019-05-26T18:28:06.715Z,36.80
2019-05-26T18:30:33.850Z,36.80
2019-05-26T18:33:00.687Z,36.70
2019-05-26T18:35:27.608Z,36.70
2019-05-26T18:37:54.578Z,36.60
2019-05-26T18:40:21.315Z,36.60
2019-05-26T18:42:48.157Z,36.50
2019-05-26T18:45:15.335Z,36.50
2019-05-26T18:47:42.198Z,36.40
2019-05-26T18:50:09.045Z,36.50
2019-05-26T18:52:35.936Z,36.50
2019-05-26T18:55:02.670Z,36.40
2019-05-26T18:57:29.664Z,36.30
2019-05-26T18:59:56.415Z,36.20
2019-05-26T19:02:23.196Z,36.10
2019-05-26T19:04:50.060Z,36.00
2019-05-26T19:07:16.980Z,36.00
2019-05-26T19:09:43.715Z,36.00
2019-05-26T19:12:10.572Z,36.00
2019-05-26T19:14:37.423Z,36.00
2019-05-26T19:17:04.232Z,35.90
2019-05-26T19:19:31.088Z,35.90
2019-05-26T19:21:57.922Z,35.80
2019-05-26T19:24:24.664Z,35.80
2019-05-26T19:26:51.361Z,35.80
2019-05-26T19:29:18.199Z,35.70
2019-05-26T19:31:44.974Z,35.70
2019-05-26T19:34:11.726Z,35.70
2019-05-26T19:36:38.682Z,35.70
2019-05-26T19:39:05.614Z,35.60
2019-05-26T19:41:33.071Z,35.60
2019-05-26T19:44:00.016Z,35.50
2019-05-26T19:46:26.857Z,35.50
2019-05-26T19:48:53.695Z,35.50
2019-05-26T19:51:20.526Z,35.40
2019-05-26T19:53:47.271Z,35.40
2019-05-26T19:56:14.125Z,35.30
2019-05-26T19:58:41.284Z,35.30
2019-05-26T20:01:08.110Z,35.20
2019-05-26T20:03:34.959Z,35.20
2019-05-26T20:06:01.795Z,35.10
2019-05-26T20:08:28.549Z,35.10
2019-05-26T20:10:56.125Z,35.10
2019-05-26T20:13:23.129Z,35.00
2019-05-26T20:15:49.980Z,35.00
2019-05-26T20:18:16.715Z,35.00
2019-05-26T20:20:43.567Z,35.00
2019-05-26T20:23:10.344Z,35.00
2019-05-26T20:25:37.130Z,35.00
2019-05-26T20:28:03.972Z,35.00
2019-05-26T20:30:30.716Z,35.00
2019-05-26T20:32:57.569Z,34.90
2019-05-26T20:35:24.403Z,34.90
2019-05-26T20:37:51.246Z,34.90
2019-05-26T20:40:17.985Z,34.90
2019-05-26T20:42:44.831Z,34.80
2019-05-26T20:45:11.677Z,34.80
2019-05-26T20:47:38.437Z,34.80
2019-05-26T20:50:05.263Z,34.80
2019-05-26T20:52:32.092Z,34.80
2019-05-26T20:55:00.602Z,34.70
2019-05-26T20:57:27.641Z,34.70
2019-05-26T20:59:54.529Z,34.60
2019-05-26T21:02:21.513Z,34.60
2019-05-26T21:04:48.333Z,34.60
2019-05-26T21:07:15.180Z,34.60
2019-05-26T21:09:42.056Z,34.60
2019-05-26T21:12:09.532Z,34.50
2019-05-26T21:14:36.348Z,34.50
2019-05-26T21:17:03.391Z,34.40
2019-05-26T21:19:30.445Z,34.40
2019-05-26T21:21:57.156Z,34.30
2019-05-26T21:24:24.003Z,34.20
2019-05-26T21:26:50.850Z,34.20
2019-05-26T21:29:17.579Z,34.10
2019-05-26T21:31:44.318Z,34.10
2019-05-26T21:34:11.355Z,34.00
2019-05-26T21:36:38.103Z,34.00
2019-05-26T21:39:04.956Z,33.90
2019-05-26T21:41:32.716Z,33.90
2019-05-26T21:43:59.568Z,33.80
2019-05-26T21:46:27.056Z,33.70
2019-05-26T21:48:54.114Z,33.70
2019-05-26T21:51:21.931Z,33.60
2019-05-26T21:53:49.141Z,33.60
2019-05-26T21:56:16.834Z,33.60
2019-05-26T21:58:44.347Z,33.50
2019-05-26T22:01:11.744Z,33.40
2019-05-26T22:03:39.615Z,33.40
2019-05-26T22:06:06.478Z,33.30
2019-05-26T22:08:33.411Z,33.30
2019-05-26T22:11:00.434Z,33.30
2019-05-26T22:13:27.485Z,33.30
2019-05-26T22:15:54.369Z,33.20
2019-05-26T22:18:21.400Z,33.20
2019-05-26T22:20:48.264Z,33.10
2019-05-26T22:23:15.075Z,33.10
2019-05-26T22:25:42.102Z,33.10
2019-05-26T22:28:09.374Z,33.00
2019-05-26T22:30:37.006Z,33.00
2019-05-26T22:33:03.974Z,33.00
2019-05-26T22:35:30.724Z,32.90
2019-05-26T22:37:57.556Z,32.90
2019-05-26T22:40:24.668Z,32.90
2019-05-26T22:42:51.542Z,32.90
2019-05-26T22:45:18.292Z,32.80
2019-05-26T22:47:45.108Z,32.80
2019-05-26T22:50:11.860Z,32.80
2019-05-26T22:52:38.643Z,32.80
2019-05-26T22:55:05.429Z,32.70
2019-05-26T22:57:32.175Z,32.70
2019-05-26T22:59:58.879Z,32.70
2019-05-26T23:02:25.761Z,32.70
2019-05-26T23:04:52.486Z,32.60
2019-05-26T23:07:19.227Z,32.60
2019-05-26T23:09:46.202Z,32.60
2019-05-26T23:12:15.428Z,32.50
2019-05-26T23:14:42.526Z,32.50
2019-05-26T23:17:09.360Z,32.50
2019-05-26T23:19:36.095Z,32.40
2019-05-26T23:22:02.739Z,32.40
2019-05-26T23:24:29.528Z,32.40
2019-05-26T23:26:56.633Z,32.30
2019-05-26T23:29:23.362Z,32.30
2019-05-26T23:31:50.213Z,32.30
2019-05-26T23:34:16.940Z,32.30
2019-05-26T23:36:44.398Z,32.20
2019-05-26T23:39:11.489Z,32.20
2019-05-26T23:41:38.926Z,32.10
2019-05-26T23:44:06.079Z,32.10
2019-05-26T23:46:33.127Z,32.10
2019-05-26T23:48:59.946Z,32.10
2019-05-26T23:51:26.893Z,32.00
2019-05-26T23:53:54.137Z,32.00
2019-05-26T23:56:20.875Z,32.00
2019-05-26T23:58:47.609Z,31.90
